createdAt,value
2023-05-13T00:00:18.209Z,9.90
2023-05-13T00:00:49.916Z,8.85
2023-05-13T00:01:21.481Z,9.27
2023-05-13T00:01:53.633Z,9.77
2023-05-13T00:02:25.409Z,9.40
2023-05-13T00:02:57.253Z,9.55
2023-05-13T00:03:29.127Z,9.18
2023-05-13T00:04:00.888Z,9.00
2023-05-13T00:04:32.508Z,9.00
2023-05-13T00:05:04.408Z,9.32
2023-05-13T00:05:36.065Z,10.13
2023-05-13T00:06:07.847Z,9.85
2023-05-13T00:06:39.694Z,9.52
2023-05-13T00:07:11.471Z,9.45
2023-05-13T00:07:43.103Z,9.93
2023-05-13T00:08:14.743Z,10.02
2023-05-13T00:08:46.567Z,9.65
2023-05-13T00:09:18.172Z,9.57
2023-05-13T00:09:49.778Z,9.68
2023-05-13T00:10:21.779Z,9.43
2023-05-13T00:10:53.595Z,9.27
2023-05-13T00:11:25.704Z,9.23
2023-05-13T00:11:57.282Z,9.52
2023-05-13T00:12:28.866Z,10.25
2023-05-13T00:13:00.428Z,9.35
2023-05-13T00:13:32.097Z,9.27
2023-05-13T00:14:04.135Z,9.77
2023-05-13T00:14:35.708Z,9.43
2023-05-13T00:15:07.764Z,9.93
2023-05-13T00:15:40.491Z,9.27
2023-05-13T00:16:12.189Z,10.10
2023-05-13T00:16:43.963Z,10.23
2023-05-13T00:17:15.714Z,10.48
2023-05-13T00:17:47.332Z,9.70
2023-05-13T00:18:19.345Z,9.45
2023-05-13T00:18:51.635Z,9.55
2023-05-13T00:19:23.331Z,9.80
2023-05-13T00:19:54.939Z,9.88
2023-05-13T00:20:26.778Z,10.30
2023-05-13T00:20:58.410Z,10.27
2023-05-13T00:21:30.002Z,9.55
2023-05-13T00:22:01.674Z,9.82
2023-05-13T00:22:33.338Z,10.27
2023-05-13T00:23:05.069Z,9.43
2023-05-13T00:23:36.668Z,9.75
2023-05-13T00:24:08.276Z,9.75
2023-05-13T00:24:40.012Z,10.10
2023-05-13T00:25:11.669Z,9.60
2023-05-13T00:25:44.596Z,9.77
2023-05-13T00:26:16.454Z,9.85
2023-05-13T00:26:48.087Z,10.20
2023-05-13T00:27:19.720Z,9.60
2023-05-13T00:27:51.341Z,10.15
2023-05-13T00:28:22.900Z,10.00
2023-05-13T00:28:54.499Z,9.68
2023-05-13T00:29:26.257Z,9.63
2023-05-13T00:29:59.795Z,9.75
2023-05-13T00:30:31.421Z,9.38
2023-05-13T00:31:03.430Z,9.93
2023-05-13T00:31:35.072Z,9.90
2023-05-13T00:32:06.902Z,9.65
2023-05-13T00:32:38.546Z,9.98
2023-05-13T00:33:10.151Z,9.95
2023-05-13T00:33:41.764Z,9.60
2023-05-13T00:34:13.292Z,9.75
2023-05-13T00:34:44.875Z,9.65
2023-05-13T00:35:16.558Z,9.98
2023-05-13T00:35:48.178Z,9.63
2023-05-13T00:36:19.809Z,9.55
2023-05-13T00:36:51.385Z,9.52
2023-05-13T00:37:23.090Z,9.35
2023-05-13T00:37:54.663Z,9.40
2023-05-13T00:38:26.302Z,9.90
2023-05-13T00:38:58.300Z,9.45
2023-05-13T00:39:29.993Z,9.45
2023-05-13T00:40:01.723Z,9.50
2023-05-13T00:40:37.116Z,9.43
2023-05-13T00:41:08.795Z,9.07
2023-05-13T00:41:40.498Z,9.73
2023-05-13T00:42:12.427Z,9.52
2023-05-13T00:42:44.024Z,9.85
2023-05-13T00:43:16.412Z,9.65
2023-05-13T00:43:48.092Z,9.30
2023-05-13T00:44:19.730Z,8.98
2023-05-13T00:44:52.931Z,9.18
2023-05-13T00:45:24.567Z,9.90
2023-05-13T00:45:56.632Z,9.52
2023-05-13T00:46:32.151Z,9.68
2023-05-13T00:47:07.551Z,9.13
2023-05-13T00:47:41.076Z,9.55
2023-05-13T00:48:13.110Z,9.10
2023-05-13T00:48:44.711Z,9.32
2023-05-13T00:49:16.584Z,9.07
2023-05-13T00:49:48.349Z,9.43
2023-05-13T00:50:20.675Z,9.82
2023-05-13T00:50:52.683Z,9.73
2023-05-13T00:51:24.330Z,9.73
2023-05-13T00:51:56.617Z,9.63
2023-05-13T00:52:28.258Z,10.38
2023-05-13T00:53:00.077Z,9.18
2023-05-13T00:53:33.097Z,9.85
2023-05-13T00:54:05.092Z,9.27
2023-05-13T00:54:36.726Z,9.20
2023-05-13T00:55:09.952Z,9.57
2023-05-13T00:55:45.957Z,9.20
2023-05-13T00:56:22.066Z,9.57
2023-05-13T00:56:56.671Z,9.40
2023-05-13T00:57:28.298Z,9.70
2023-05-13T00:57:59.922Z,9.55
2023-05-13T00:58:31.613Z,9.18
2023-05-13T00:59:03.192Z,9.43
2023-05-13T00:59:34.882Z,10.30
2023-05-13T01:00:08.012Z,10.23
2023-05-13T01:00:48.046Z,9.02
2023-05-13T01:01:38.147Z,9.60
2023-05-13T01:02:48.294Z,9.35
2023-05-13T01:03:33.827Z,8.73
2023-05-13T01:04:17.387Z,8.52
2023-05-13T01:05:27.233Z,9.15
2023-05-13T01:06:11.953Z,8.82
2023-05-13T01:06:53.000Z,8.80
2023-05-13T01:07:33.212Z,8.60
2023-05-13T01:08:32.361Z,9.18
2023-05-13T01:09:15.171Z,8.25
2023-05-13T01:10:11.932Z,9.48
2023-05-13T01:10:55.484Z,8.50
2023-05-13T01:11:35.530Z,9.15
2023-05-13T01:12:16.135Z,8.85
2023-05-13T01:12:50.821Z,9.23
2023-05-13T01:13:28.908Z,9.40
2023-05-13T01:14:12.453Z,9.90
2023-05-13T01:14:58.840Z,8.60
2023-05-13T01:15:32.261Z,9.07
2023-05-13T01:16:11.228Z,9.10
2023-05-13T01:17:03.406Z,8.93
2023-05-13T01:17:53.883Z,9.13
2023-05-13T01:18:43.186Z,9.40
2023-05-13T01:19:46.463Z,8.82
2023-05-13T01:20:22.560Z,9.13
2023-05-13T01:20:55.432Z,9.50
2023-05-13T01:21:27.963Z,9.18
2023-05-13T01:21:59.543Z,9.23
2023-05-13T01:22:32.198Z,9.48
2023-05-13T01:23:04.520Z,9.48
2023-05-13T01:23:36.152Z,9.52
2023-05-13T01:24:08.121Z,9.68
2023-05-13T01:24:39.941Z,10.32
2023-05-13T01:25:11.807Z,9.85
2023-05-13T01:25:43.484Z,9.38
2023-05-13T01:26:15.048Z,9.80
2023-05-13T01:26:46.796Z,9.73
2023-05-13T01:27:18.471Z,9.23
2023-05-13T01:27:50.710Z,9.00
2023-05-13T01:28:22.833Z,9.20
2023-05-13T01:28:54.520Z,9.45
2023-05-13T01:29:26.204Z,9.00
2023-05-13T01:29:57.812Z,9.32
2023-05-13T01:30:30.528Z,9.15
2023-05-13T01:31:02.300Z,8.80
2023-05-13T01:31:34.559Z,9.98
2023-05-13T01:32:07.451Z,9.05
2023-05-13T01:32:39.452Z,9.25
2023-05-13T01:33:11.433Z,9.07
2023-05-13T01:33:43.853Z,8.98
2023-05-13T01:34:16.177Z,8.60
2023-05-13T01:34:48.362Z,9.18
2023-05-13T01:35:20.889Z,9.45
2023-05-13T01:35:52.865Z,8.48
2023-05-13T01:36:24.842Z,8.98
2023-05-13T01:36:56.547Z,9.40
2023-05-13T01:37:29.222Z,8.88
2023-05-13T01:38:02.899Z,9.20
2023-05-13T01:38:36.801Z,8.98
2023-05-13T01:39:08.749Z,8.63
2023-05-13T01:39:41.627Z,9.07
2023-05-13T01:40:28.156Z,8.70
2023-05-13T01:41:03.236Z,8.90
2023-05-13T01:41:35.207Z,8.20
2023-05-13T01:42:07.309Z,8.90
2023-05-13T01:42:39.063Z,8.75
2023-05-13T01:43:10.655Z,8.82
2023-05-13T01:43:42.366Z,9.18
2023-05-13T01:44:14.032Z,9.30
2023-05-13T01:44:45.650Z,9.05
2023-05-13T01:45:17.433Z,9.00
2023-05-13T01:45:49.027Z,9.05
2023-05-13T01:46:20.985Z,8.80
2023-05-13T01:46:53.675Z,8.98
2023-05-13T01:47:25.437Z,9.05
2023-05-13T01:47:57.158Z,8.48
2023-05-13T01:48:28.830Z,9.27
2023-05-13T01:49:00.567Z,8.25
2023-05-13T01:49:32.156Z,9.10
2023-05-13T01:50:03.813Z,8.85
2023-05-13T01:50:35.425Z,9.10
2023-05-13T01:51:07.317Z,8.27
2023-05-13T01:51:40.305Z,9.45
2023-05-13T01:52:11.970Z,8.80
2023-05-13T01:52:43.585Z,8.82
2023-05-13T01:53:15.195Z,8.77
2023-05-13T01:53:46.819Z,9.70
2023-05-13T01:54:18.465Z,9.00
2023-05-13T01:54:50.030Z,8.65
2023-05-13T01:55:21.649Z,8.32
2023-05-13T01:55:53.272Z,8.90
2023-05-13T01:56:24.967Z,8.23
2023-05-13T01:56:56.742Z,8.05
2023-05-13T01:57:28.309Z,8.55
2023-05-13T01:57:59.898Z,8.27
2023-05-13T01:58:31.504Z,8.95
2023-05-13T01:59:03.173Z,8.20
2023-05-13T01:59:34.907Z,8.25
2023-05-13T02:00:08.131Z,9.10
2023-05-13T02:00:39.695Z,8.50
2023-05-13T02:01:11.255Z,9.07
2023-05-13T02:01:42.945Z,8.40
2023-05-13T02:02:14.648Z,7.93
2023-05-13T02:02:47.177Z,8.65
2023-05-13T02:03:19.217Z,8.57
2023-05-13T02:03:50.929Z,8.90
2023-05-13T02:04:22.684Z,8.35
2023-05-13T02:04:54.263Z,8.30
2023-05-13T02:05:25.942Z,8.82
2023-05-13T02:05:57.544Z,8.88
2023-05-13T02:06:29.216Z,8.57
2023-05-13T02:07:00.957Z,9.20
2023-05-13T02:07:34.410Z,9.18
2023-05-13T02:08:07.028Z,9.18
2023-05-13T02:08:38.644Z,8.30
2023-05-13T02:09:10.269Z,8.45
2023-05-13T02:09:42.553Z,8.50
2023-05-13T02:10:14.241Z,8.18
2023-05-13T02:10:54.218Z,8.65
2023-05-13T02:11:25.838Z,8.20
2023-05-13T02:11:57.447Z,8.35
2023-05-13T02:12:29.118Z,8.52
2023-05-13T02:13:00.783Z,9.20
2023-05-13T02:13:32.507Z,8.35
2023-05-13T02:14:04.129Z,8.75
2023-05-13T02:14:35.914Z,9.00
2023-05-13T02:15:08.021Z,9.13
2023-05-13T02:15:39.642Z,8.77
2023-05-13T02:16:14.784Z,9.30
2023-05-13T02:16:46.491Z,8.45
2023-05-13T02:17:18.125Z,8.55
2023-05-13T02:17:49.765Z,8.80
2023-05-13T02:18:22.410Z,8.52
2023-05-13T02:18:54.222Z,8.15
2023-05-13T02:19:25.917Z,8.93
2023-05-13T02:19:57.516Z,9.10
2023-05-13T02:20:29.304Z,8.85
2023-05-13T02:21:00.932Z,9.48
2023-05-13T02:21:32.622Z,8.80
2023-05-13T02:22:04.369Z,9.10
2023-05-13T02:22:36.162Z,8.93
2023-05-13T02:23:08.075Z,8.95
2023-05-13T02:23:39.926Z,9.30
2023-05-13T02:24:11.660Z,9.57
2023-05-13T02:24:43.459Z,9.45
2023-05-13T02:25:15.124Z,9.30
2023-05-13T02:25:46.722Z,9.18
2023-05-13T02:26:18.375Z,9.57
2023-05-13T02:26:50.014Z,9.23
2023-05-13T02:27:23.579Z,9.32
2023-05-13T02:27:55.231Z,9.50
2023-05-13T02:28:26.901Z,9.30
2023-05-13T02:28:58.822Z,9.43
2023-05-13T02:29:30.402Z,9.18
2023-05-13T02:30:02.067Z,9.45
2023-05-13T02:30:33.871Z,9.25
2023-05-13T02:31:05.706Z,10.23
2023-05-13T02:31:37.370Z,9.20
2023-05-13T02:32:09.112Z,9.25
2023-05-13T02:32:43.965Z,8.98
2023-05-13T02:33:15.636Z,9.88
2023-05-13T02:33:47.748Z,10.10
2023-05-13T02:34:19.444Z,9.50
2023-05-13T02:34:51.109Z,9.75
2023-05-13T02:35:22.811Z,10.02
2023-05-13T02:35:54.430Z,10.18
2023-05-13T02:36:25.961Z,10.40
2023-05-13T02:36:57.527Z,10.25
2023-05-13T02:37:29.134Z,9.88
2023-05-13T02:38:00.913Z,10.60
2023-05-13T02:38:32.497Z,10.93
2023-05-13T02:39:04.185Z,10.70
2023-05-13T02:39:36.196Z,10.20
2023-05-13T02:40:08.734Z,10.32
2023-05-13T02:40:40.350Z,10.23
2023-05-13T02:41:11.968Z,10.90
2023-05-13T02:41:44.558Z,10.48
2023-05-13T02:42:16.171Z,10.73
2023-05-13T02:42:47.929Z,11.55
2023-05-13T02:43:19.596Z,10.43
2023-05-13T02:43:51.123Z,11.02
2023-05-13T02:44:22.689Z,11.38
2023-05-13T02:44:54.281Z,11.68
2023-05-13T02:45:26.102Z,10.90
2023-05-13T02:45:57.737Z,10.85
2023-05-13T02:46:29.434Z,10.45
2023-05-13T02:47:01.033Z,11.30
2023-05-13T02:47:33.041Z,10.75
2023-05-13T02:48:04.748Z,11.07
2023-05-13T02:48:36.339Z,11.30
2023-05-13T02:49:07.918Z,11.57
2023-05-13T02:49:39.521Z,11.75
2023-05-13T02:50:12.966Z,11.60
2023-05-13T02:50:44.827Z,10.95
2023-05-13T02:51:16.398Z,11.32
2023-05-13T02:51:48.446Z,11.43
2023-05-13T02:52:20.085Z,11.23
2023-05-13T02:52:51.955Z,11.10
2023-05-13T02:53:24.158Z,11.65
2023-05-13T02:53:55.754Z,11.32
2023-05-13T02:54:27.355Z,11.88
2023-05-13T02:54:58.958Z,11.05
2023-05-13T02:55:30.705Z,11.73
2023-05-13T02:56:02.390Z,11.60
2023-05-13T02:56:33.989Z,11.88
2023-05-13T02:57:05.871Z,12.02
2023-05-13T02:57:40.328Z,11.55
2023-05-13T02:58:12.564Z,11.38
2023-05-13T02:58:44.230Z,11.35
2023-05-13T02:59:15.813Z,12.18
2023-05-13T02:59:47.378Z,12.30
2023-05-13T03:00:19.438Z,11.88
2023-05-13T03:00:51.252Z,12.68
2023-05-13T03:01:22.950Z,12.40
2023-05-13T03:01:54.542Z,12.45
2023-05-13T03:02:26.287Z,12.07
2023-05-13T03:02:58.186Z,12.48
2023-05-13T03:03:30.006Z,12.40
2023-05-13T03:04:01.695Z,12.07
2023-05-13T03:04:33.274Z,12.10
2023-05-13T03:05:05.213Z,12.65
2023-05-13T03:05:36.846Z,12.27
2023-05-13T03:06:08.544Z,13.05
2023-05-13T03:06:40.156Z,12.38
2023-05-13T03:07:11.743Z,12.55
2023-05-13T03:07:43.405Z,12.93
2023-05-13T03:08:15.023Z,13.10
2023-05-13T03:08:46.667Z,12.18
2023-05-13T03:09:18.257Z,12.65
2023-05-13T03:09:49.842Z,12.95
2023-05-13T03:10:21.605Z,12.45
2023-05-13T03:10:53.398Z,13.35
2023-05-13T03:11:25.125Z,13.00
2023-05-13T03:11:56.761Z,11.85
2023-05-13T03:12:28.388Z,12.77
2023-05-13T03:12:59.998Z,12.02
2023-05-13T03:13:31.604Z,11.20
2023-05-13T03:14:03.159Z,11.15
2023-05-13T03:14:36.952Z,11.45
2023-05-13T03:15:09.364Z,11.50
2023-05-13T03:15:43.486Z,11.60
2023-05-13T03:16:16.012Z,11.82
2023-05-13T03:16:47.680Z,11.57
2023-05-13T03:17:19.280Z,10.85
2023-05-13T03:17:51.068Z,11.93
2023-05-13T03:18:22.758Z,11.68
2023-05-13T03:18:54.585Z,11.57
2023-05-13T03:19:26.184Z,11.45
2023-05-13T03:19:57.984Z,11.52
2023-05-13T03:20:30.025Z,11.00
2023-05-13T03:21:01.960Z,10.32
2023-05-13T03:21:33.547Z,11.15
2023-05-13T03:22:06.064Z,10.75
2023-05-13T03:22:41.040Z,11.07
2023-05-13T03:23:12.661Z,11.32
2023-05-13T03:23:44.259Z,10.98
2023-05-13T03:24:15.848Z,10.68
2023-05-13T03:24:47.554Z,11.00
2023-05-13T03:25:19.116Z,11.48
2023-05-13T03:25:50.696Z,11.60
2023-05-13T03:26:22.383Z,11.43
2023-05-13T03:26:54.054Z,11.02
2023-05-13T03:27:25.730Z,10.43
2023-05-13T03:27:57.389Z,11.18
2023-05-13T03:28:28.994Z,10.48
2023-05-13T03:29:01.995Z,11.45
2023-05-13T03:29:33.570Z,10.82
2023-05-13T03:30:05.917Z,10.40
2023-05-13T03:30:37.596Z,10.77
2023-05-13T03:31:09.258Z,10.57
2023-05-13T03:31:41.221Z,10.23
2023-05-13T03:32:12.912Z,11.15
2023-05-13T03:32:44.539Z,10.70
2023-05-13T03:33:16.456Z,10.20
2023-05-13T03:33:48.103Z,10.80
2023-05-13T03:34:19.725Z,9.73
2023-05-13T03:34:51.735Z,10.85
2023-05-13T03:35:23.406Z,10.48
2023-05-13T03:35:55.008Z,10.73
2023-05-13T03:36:26.624Z,10.65
2023-05-13T03:36:58.231Z,10.43
2023-05-13T03:37:32.873Z,9.60
2023-05-13T03:38:04.776Z,10.27
2023-05-13T03:38:36.376Z,9.50
2023-05-13T03:39:08.327Z,9.25
2023-05-13T03:39:39.902Z,10.40
2023-05-13T03:40:11.774Z,8.93
2023-05-13T03:40:43.391Z,9.57
2023-05-13T03:41:17.510Z,9.52
2023-05-13T03:41:49.282Z,9.48
2023-05-13T03:42:21.131Z,9.98
2023-05-13T03:42:52.769Z,9.52
2023-05-13T03:43:24.408Z,9.13
2023-05-13T03:43:56.029Z,9.38
2023-05-13T03:44:27.625Z,9.65
2023-05-13T03:44:59.262Z,10.27
2023-05-13T03:45:31.361Z,9.77
2023-05-13T03:46:02.977Z,9.38
2023-05-13T03:46:34.624Z,9.05
2023-05-13T03:47:06.606Z,9.38
2023-05-13T03:47:41.477Z,9.43
2023-05-13T03:48:13.306Z,9.52
2023-05-13T03:48:45.183Z,9.23
2023-05-13T03:49:18.064Z,9.00
2023-05-13T03:49:50.121Z,9.50
2023-05-13T03:50:21.882Z,8.80
2023-05-13T03:50:53.639Z,8.95
2023-05-13T03:51:25.316Z,9.75
2023-05-13T03:51:57.004Z,8.77
2023-05-13T03:52:28.618Z,8.85
2023-05-13T03:53:00.347Z,8.80
2023-05-13T03:53:32.118Z,8.68
2023-05-13T03:54:03.868Z,9.00
2023-05-13T03:54:35.795Z,8.90
2023-05-13T03:55:07.688Z,8.73
2023-05-13T03:55:39.331Z,8.82
2023-05-13T03:56:10.928Z,8.63
2023-05-13T03:56:42.543Z,8.25
2023-05-13T03:57:14.132Z,8.48
2023-05-13T03:57:48.624Z,9.27
2023-05-13T03:58:21.796Z,9.10
2023-05-13T03:58:53.376Z,8.32
2023-05-13T03:59:25.042Z,8.68
2023-05-13T03:59:56.648Z,8.73
2023-05-13T04:00:28.261Z,8.88
2023-05-13T04:00:59.897Z,8.50
2023-05-13T04:01:31.493Z,9.48
2023-05-13T04:02:03.222Z,7.97
2023-05-13T04:02:35.013Z,9.68
2023-05-13T04:03:07.266Z,8.88
2023-05-13T04:03:38.992Z,8.75
2023-05-13T04:04:10.644Z,8.98
2023-05-13T04:04:42.387Z,9.38
2023-05-13T04:05:14.434Z,8.57
2023-05-13T04:05:46.957Z,9.05
2023-05-13T04:06:18.610Z,9.02
2023-05-13T04:06:50.260Z,8.95
2023-05-13T04:07:21.868Z,9.02
2023-05-13T04:07:53.473Z,8.45
2023-05-13T04:08:25.844Z,8.52
2023-05-13T04:08:57.720Z,8.57
2023-05-13T04:09:29.404Z,8.88
2023-05-13T04:10:01.041Z,8.80
2023-05-13T04:10:32.712Z,8.48
2023-05-13T04:11:04.376Z,8.32
2023-05-13T04:11:36.134Z,9.05
2023-05-13T04:12:07.838Z,8.57
2023-05-13T04:12:40.510Z,8.57
2023-05-13T04:13:12.184Z,9.18
2023-05-13T04:13:46.035Z,8.88
2023-05-13T04:14:18.184Z,8.52
2023-05-13T04:14:49.770Z,8.70
2023-05-13T04:15:21.377Z,8.93
2023-05-13T04:15:54.545Z,9.00
2023-05-13T04:16:26.194Z,8.70
2023-05-13T04:16:57.903Z,8.40
2023-05-13T04:17:29.535Z,8.63
2023-05-13T04:18:01.351Z,8.05
2023-05-13T04:18:34.139Z,8.68
2023-05-13T04:19:05.992Z,8.27
2023-05-13T04:19:37.619Z,8.57
2023-05-13T04:20:09.500Z,8.68
2023-05-13T04:20:41.206Z,8.70
2023-05-13T04:21:12.828Z,8.43
2023-05-13T04:21:44.391Z,7.80
2023-05-13T04:22:15.942Z,8.52
2023-05-13T04:22:48.562Z,8.05
2023-05-13T04:23:20.169Z,8.30
2023-05-13T04:23:51.732Z,7.72
2023-05-13T04:24:23.333Z,8.32
2023-05-13T04:24:56.747Z,8.00
2023-05-13T04:25:28.466Z,8.45
2023-05-13T04:26:00.334Z,7.60
2023-05-13T04:26:31.908Z,8.05
2023-05-13T04:27:03.748Z,8.18
2023-05-13T04:27:35.501Z,7.88
2023-05-13T04:28:07.364Z,7.88
2023-05-13T04:28:38.983Z,7.97
2023-05-13T04:29:10.855Z,7.88
2023-05-13T04:29:42.495Z,8.50
2023-05-13T04:30:14.332Z,7.90
2023-05-13T04:30:45.963Z,7.95
2023-05-13T04:31:18.676Z,8.18
2023-05-13T04:31:50.837Z,8.30
2023-05-13T04:32:23.126Z,8.15
2023-05-13T04:32:54.945Z,8.07
2023-05-13T04:33:27.304Z,8.60
2023-05-13T04:33:58.918Z,8.65
2023-05-13T04:34:30.539Z,8.30
2023-05-13T04:35:02.189Z,8.00
2023-05-13T04:35:33.746Z,8.20
2023-05-13T04:36:05.910Z,8.13
2023-05-13T04:36:37.500Z,7.80
2023-05-13T04:37:09.197Z,7.75
2023-05-13T04:37:40.813Z,7.65
2023-05-13T04:38:12.619Z,7.72
2023-05-13T04:38:44.186Z,8.27
2023-05-13T04:39:16.220Z,7.97
2023-05-13T04:39:48.440Z,8.38
2023-05-13T04:40:20.218Z,8.02
2023-05-13T04:40:52.732Z,8.85
2023-05-13T04:41:24.373Z,8.65
2023-05-13T04:41:55.999Z,8.60
2023-05-13T04:42:27.908Z,8.35
2023-05-13T04:42:59.512Z,8.68
2023-05-13T04:43:32.232Z,8.98
2023-05-13T04:44:06.225Z,8.65
2023-05-13T04:44:37.863Z,7.28
2023-05-13T04:45:09.888Z,7.75
2023-05-13T04:45:41.511Z,7.05
2023-05-13T04:46:13.176Z,7.80
2023-05-13T04:46:45.048Z,7.28
2023-05-13T04:47:16.823Z,7.82
2023-05-13T04:47:48.673Z,7.97
2023-05-13T04:48:20.537Z,7.72
2023-05-13T04:48:52.101Z,7.72
2023-05-13T04:49:24.080Z,7.25
2023-05-13T04:49:56.064Z,7.95
2023-05-13T04:50:28.001Z,7.80
2023-05-13T04:50:59.920Z,7.35
2023-05-13T04:51:33.001Z,8.32
2023-05-13T04:52:05.996Z,7.28
2023-05-13T04:52:37.862Z,7.15
2023-05-13T04:53:09.417Z,7.30
2023-05-13T04:53:41.137Z,7.25
2023-05-13T04:54:12.736Z,7.35
2023-05-13T04:54:44.335Z,7.00
2023-05-13T04:55:15.999Z,7.40
2023-05-13T04:55:50.763Z,7.90
2023-05-13T04:56:22.589Z,7.85
2023-05-13T04:56:54.296Z,7.20
2023-05-13T04:57:25.957Z,7.20
2023-05-13T04:57:57.616Z,7.70
2023-05-13T04:58:29.316Z,7.22
2023-05-13T04:59:00.989Z,7.82
2023-05-13T04:59:32.796Z,7.80
2023-05-13T05:00:05.626Z,7.40
2023-05-13T05:00:37.275Z,8.00
2023-05-13T05:01:08.886Z,7.75
2023-05-13T05:01:40.522Z,7.80
2023-05-13T05:02:12.160Z,7.60
2023-05-13T05:02:43.779Z,8.18
2023-05-13T05:03:15.493Z,7.43
2023-05-13T05:03:47.183Z,7.53
2023-05-13T05:04:18.945Z,8.13
2023-05-13T05:04:50.699Z,7.53
2023-05-13T05:05:22.375Z,8.20
2023-05-13T05:05:53.990Z,7.80
2023-05-13T05:06:25.613Z,8.20
2023-05-13T05:06:57.263Z,7.40
2023-05-13T05:07:29.174Z,8.07
2023-05-13T05:08:00.728Z,7.70
2023-05-13T05:08:32.449Z,7.32
2023-05-13T05:09:04.784Z,7.90
2023-05-13T05:09:36.428Z,7.55
2023-05-13T05:10:08.838Z,7.07
2023-05-13T05:10:40.532Z,7.50
2023-05-13T05:11:12.205Z,7.55
2023-05-13T05:11:43.831Z,7.80
2023-05-13T05:12:15.744Z,7.40
2023-05-13T05:12:47.305Z,8.13
2023-05-13T05:13:18.995Z,7.70
2023-05-13T05:13:50.728Z,7.22
2023-05-13T05:14:22.680Z,7.13
2023-05-13T05:14:54.310Z,7.65
2023-05-13T05:15:26.123Z,7.13
2023-05-13T05:15:57.714Z,7.00
2023-05-13T05:16:29.288Z,6.90
2023-05-13T05:17:00.908Z,7.50
2023-05-13T05:17:34.030Z,6.80
2023-05-13T05:18:06.917Z,7.15
2023-05-13T05:18:41.300Z,7.25
2023-05-13T05:19:13.113Z,7.93
2023-05-13T05:19:44.755Z,7.10
2023-05-13T05:20:16.560Z,7.15
2023-05-13T05:20:48.171Z,7.50
2023-05-13T05:21:19.781Z,7.35
2023-05-13T05:21:52.218Z,7.18
2023-05-13T05:22:23.816Z,7.45
2023-05-13T05:22:55.396Z,7.18
2023-05-13T05:23:27.040Z,7.60
2023-05-13T05:23:59.878Z,7.40
2023-05-13T05:24:31.494Z,8.10
2023-05-13T05:25:03.664Z,7.32
2023-05-13T05:25:35.332Z,7.43
2023-05-13T05:26:11.587Z,7.68
2023-05-13T05:26:43.848Z,7.22
2023-05-13T05:27:15.478Z,7.60
2023-05-13T05:27:47.042Z,8.02
2023-05-13T05:28:18.689Z,9.27
2023-05-13T05:28:50.296Z,8.00
2023-05-13T05:29:21.985Z,7.55
2023-05-13T05:29:53.579Z,7.70
2023-05-13T05:30:25.274Z,6.88
2023-05-13T05:30:57.086Z,7.53
2023-05-13T05:31:28.824Z,7.57
2023-05-13T05:32:00.486Z,7.93
2023-05-13T05:32:32.805Z,8.07
2023-05-13T05:33:04.780Z,7.93
2023-05-13T05:33:37.107Z,7.25
2023-05-13T05:34:08.720Z,7.78
2023-05-13T05:34:41.044Z,8.10
2023-05-13T05:35:13.489Z,8.07
2023-05-13T05:35:45.258Z,7.45
2023-05-13T05:36:16.813Z,7.70
2023-05-13T05:36:48.436Z,7.10
2023-05-13T05:37:20.002Z,7.85
2023-05-13T05:37:52.527Z,6.88
2023-05-13T05:38:25.429Z,7.20
2023-05-13T05:38:57.141Z,6.90
2023-05-13T05:39:28.765Z,7.38
2023-05-13T05:40:00.410Z,7.25
2023-05-13T05:40:33.044Z,7.43
2023-05-13T05:41:04.921Z,6.63
2023-05-13T05:41:36.636Z,6.80
2023-05-13T05:42:08.729Z,6.55
2023-05-13T05:42:40.358Z,6.97
2023-05-13T05:43:12.312Z,7.05
2023-05-13T05:43:43.869Z,7.35
2023-05-13T05:44:15.570Z,6.65
2023-05-13T05:44:47.733Z,7.28
2023-05-13T05:45:19.405Z,6.30
2023-05-13T05:45:51.153Z,6.57
2023-05-13T05:46:25.780Z,6.50
2023-05-13T05:46:57.389Z,6.70
2023-05-13T05:47:29.014Z,6.57
2023-05-13T05:48:00.658Z,7.22
2023-05-13T05:48:34.485Z,7.25
2023-05-13T05:49:08.256Z,7.47
2023-05-13T05:49:39.839Z,7.20
2023-05-13T05:50:11.514Z,7.07
2023-05-13T05:50:43.222Z,7.20
2023-05-13T05:51:15.151Z,7.57
2023-05-13T05:51:46.766Z,7.10
2023-05-13T05:52:18.345Z,7.53
2023-05-13T05:52:49.949Z,6.85
2023-05-13T05:53:21.880Z,7.57
2023-05-13T05:53:53.492Z,6.60
2023-05-13T05:54:25.262Z,6.95
2023-05-13T05:54:56.979Z,7.10
2023-05-13T05:55:28.926Z,7.05
2023-05-13T05:56:00.549Z,7.00
2023-05-13T05:56:32.221Z,7.10
2023-05-13T05:57:03.887Z,6.60
2023-05-13T05:57:35.455Z,7.50
2023-05-13T05:58:09.940Z,8.00
2023-05-13T05:58:41.710Z,6.68
2023-05-13T05:59:13.317Z,7.50
2023-05-13T05:59:44.896Z,7.18
2023-05-13T06:00:16.848Z,7.18
2023-05-13T06:00:48.549Z,7.38
2023-05-13T06:01:20.171Z,7.50
2023-05-13T06:01:51.833Z,6.82
2023-05-13T06:02:23.504Z,7.40
2023-05-13T06:02:55.257Z,7.68
2023-05-13T06:03:27.602Z,7.07
2023-05-13T06:03:59.760Z,7.18
2023-05-13T06:04:31.535Z,7.20
2023-05-13T06:05:03.244Z,7.15
2023-05-13T06:05:35.464Z,7.20
2023-05-13T06:06:07.250Z,7.60
2023-05-13T06:06:40.418Z,6.63
2023-05-13T06:07:12.243Z,6.97
2023-05-13T06:07:43.835Z,6.65
2023-05-13T06:08:15.479Z,7.35
2023-05-13T06:08:47.155Z,7.25
2023-05-13T06:09:18.724Z,7.13
2023-05-13T06:09:50.423Z,7.07
2023-05-13T06:10:22.234Z,6.10
2023-05-13T06:10:53.959Z,6.88
2023-05-13T06:11:25.672Z,6.93
2023-05-13T06:11:57.267Z,7.03
2023-05-13T06:12:28.883Z,6.43
2023-05-13T06:13:00.523Z,7.05
2023-05-13T06:13:32.189Z,7.53
2023-05-13T06:14:03.818Z,6.25
2023-05-13T06:14:35.644Z,6.85
2023-05-13T06:15:10.664Z,6.57
2023-05-13T06:15:42.304Z,7.03
2023-05-13T06:16:13.963Z,6.50
2023-05-13T06:16:45.804Z,6.80
2023-05-13T06:17:17.464Z,6.72
2023-05-13T06:17:49.349Z,7.10
2023-05-13T06:18:21.163Z,6.50
2023-05-13T06:18:52.929Z,6.22
2023-05-13T06:19:24.593Z,6.70
2023-05-13T06:19:56.207Z,6.50
2023-05-13T06:20:27.861Z,6.13
2023-05-13T06:20:59.492Z,7.07
2023-05-13T06:21:32.099Z,6.70
2023-05-13T06:22:04.316Z,7.00
2023-05-13T06:22:36.043Z,6.05
2023-05-13T06:23:08.737Z,6.43
2023-05-13T06:23:40.592Z,5.85
2023-05-13T06:24:12.198Z,6.03
2023-05-13T06:24:44.865Z,6.40
2023-05-13T06:25:16.582Z,6.30
2023-05-13T06:25:48.196Z,6.60
2023-05-13T06:26:19.849Z,5.72
2023-05-13T06:26:51.429Z,6.00
2023-05-13T06:27:23.140Z,5.90
2023-05-13T06:27:55.150Z,6.15
2023-05-13T06:28:26.872Z,6.10
2023-05-13T06:28:58.476Z,6.60
2023-05-13T06:29:30.058Z,6.75
2023-05-13T06:30:01.776Z,5.88
2023-05-13T06:30:33.419Z,6.68
2023-05-13T06:31:05.238Z,6.03
2023-05-13T06:31:37.255Z,6.18
2023-05-13T06:32:09.045Z,5.90
2023-05-13T06:32:47.301Z,5.65
2023-05-13T06:33:25.647Z,5.70
2023-05-13T06:33:57.273Z,6.18
2023-05-13T06:34:28.885Z,6.20
2023-05-13T06:35:00.656Z,6.57
2023-05-13T06:35:32.339Z,6.10
2023-05-13T06:36:04.419Z,5.90
2023-05-13T06:36:36.036Z,5.38
2023-05-13T06:37:07.799Z,5.85
2023-05-13T06:37:39.531Z,6.05
2023-05-13T06:38:11.186Z,6.40
2023-05-13T06:38:42.785Z,6.18
2023-05-13T06:39:14.430Z,6.13
2023-05-13T06:39:46.292Z,6.30
2023-05-13T06:40:17.904Z,6.35
2023-05-13T06:40:49.481Z,6.05
2023-05-13T06:41:21.462Z,6.07
2023-05-13T06:41:53.042Z,5.95
2023-05-13T06:42:24.684Z,5.97
2023-05-13T06:42:56.327Z,5.72
2023-05-13T06:43:27.966Z,5.80
2023-05-13T06:43:59.570Z,5.70
2023-05-13T06:44:31.692Z,5.80
2023-05-13T06:45:03.483Z,6.13
2023-05-13T06:45:35.115Z,5.50
2023-05-13T06:46:06.796Z,6.20
2023-05-13T06:46:38.389Z,5.72
2023-05-13T06:47:16.064Z,5.65
2023-05-13T06:47:47.886Z,5.95
2023-05-13T06:48:19.555Z,5.32
2023-05-13T06:48:52.882Z,6.13
2023-05-13T06:49:27.287Z,5.78
2023-05-13T06:49:58.950Z,5.45
2023-05-13T06:50:30.742Z,5.47
2023-05-13T06:51:02.313Z,5.93
2023-05-13T06:51:34.935Z,5.75
2023-05-13T06:52:06.872Z,5.85
2023-05-13T06:52:40.020Z,5.47
2023-05-13T06:53:13.443Z,5.75
2023-05-13T06:53:45.051Z,5.95
2023-05-13T06:54:16.695Z,5.38
2023-05-13T06:54:48.331Z,5.70
2023-05-13T06:55:20.020Z,6.43
2023-05-13T06:55:51.724Z,5.57
2023-05-13T06:56:23.728Z,5.28
2023-05-13T06:56:55.648Z,5.25
2023-05-13T06:57:38.808Z,5.60
2023-05-13T06:58:13.850Z,5.25
2023-05-13T06:58:45.429Z,6.43
2023-05-13T06:59:17.032Z,5.22
2023-05-13T06:59:48.634Z,6.13
2023-05-13T07:00:20.891Z,5.70
2023-05-13T07:00:52.760Z,5.53
2023-05-13T07:01:24.407Z,5.43
2023-05-13T07:01:56.024Z,5.90
2023-05-13T07:02:27.684Z,6.20
2023-05-13T07:02:59.301Z,5.10
2023-05-13T07:03:30.978Z,5.45
2023-05-13T07:04:02.604Z,5.80
2023-05-13T07:04:34.366Z,5.47
2023-05-13T07:05:06.500Z,5.30
2023-05-13T07:05:38.142Z,5.45
2023-05-13T07:06:09.972Z,5.13
2023-05-13T07:06:41.640Z,5.30
2023-05-13T07:07:13.203Z,5.65
2023-05-13T07:07:44.817Z,5.70
2023-05-13T07:08:18.160Z,5.38
2023-05-13T07:08:49.839Z,6.00
2023-05-13T07:09:21.469Z,6.00
2023-05-13T07:09:53.015Z,5.95